Accueil
METAR-TAF:

METAR-TAF

Aéroports :

Grande Canarie, Espagne

Aéroport de Gran Canaria

latitude: 27-56N, longitude: 015-23W, altitude: 23 m

Observation

Le bulletin a été fait il y a 10 minutes, à 04:30 UTC
Vent 20 kt de nord
Température 18°C
Humidité 64%
Pression 1015 hPa
Visibilité 10 km ou plus
Quelques nuages à une hauteur de 3500 ft
Nuages épars à une hauteur de 6000 ft

METAR: GCLP 120430Z 01020KT 9999 FEW035 SCT060 18/11 Q1015 NOSIG

Heure: 04:40 (04:40 UTC)

Prévision

Le bulletin a été fait il y a 2 heures et 40 minutes, à 02:00 UTC
Prévision valable du 12 à 03 UTC au 13 à 03 UTC
Vent 18 kt de nord
Visibilité 10 km ou plus
Quelques nuages à une hauteur de 2500 ft
Nuages fragmentés à une hauteur de 4500 ft
Probabilité 40% :
Temporairement
du 12 à 03 UTC au 13 à 03 UTC
Vent 25 kt de nord avec des rafales jusqu'à 35 kt

TAF: GCLP 120200Z 1203/1303 36018KT 9999 FEW025 BKN045 TX21/1215Z TN16/1206Z PROB40 TEMPO 1203/1303 36025G35KT

Observations et prévisions météorologiques de plus de 4000 aéroports (messages METAR et TAF).

Les stations disponibles sont représentées par des disques jaunes et rouges sur la carte.

Passer la souris dessus pour voir le nom de la station.

Cliquer dessus pour voir les observations et prévisions météorologiques.

Pour changer de carte: cliquez sur les boutons verts avec une croix noire pour zoomer, sur le bouton vert avec un tiret pour effectuer un zoom arrière, ou sur les flèches vertes pour les cartes adjacentes.


METAR-TAF: